Time;durP1;ratioP1;P1;durP2;ratioP2;P2;SDS_P1;SDS_P2;PMS_P1;PMS_P2;Temp;Humidity;BMP_temperature;BMP_pressure;BME280_temperature;BME280_humidity;BME280_pressure;Samples;Min_cycle;Max_cycle;Signal;HPM_P1;HPM_P2
2021/08/29 00:00:22;;;;;;;4.60;2.00;;;19.00;84.80;;;;;;5072009;28;20021;-66
2021/08/29 00:02:47;;;;;;;4.57;2.00;;;19.00;84.80;;;;;;5072382;28;20402;-69
2021/08/29 00:05:13;;;;;;;3.92;2.03;;;19.10;84.90;;;;;;5072264;28;20028;-65
2021/08/29 00:07:39;;;;;;;4.40;2.13;;;19.00;84.90;;;;;;5071478;28;20036;-66
2021/08/29 00:10:05;;;;;;;4.68;2.00;;;19.00;84.90;;;;;;5071874;28;20040;-66
2021/08/29 00:12:30;;;;;;;3.30;1.80;;;19.00;84.90;;;;;;5072084;28;20035;-66
2021/08/29 00:14:56;;;;;;;3.38;1.98;;;19.00;84.90;;;;;;5072229;28;20024;-68
2021/08/29 00:17:22;;;;;;;5.15;2.38;;;19.00;84.90;;;;;;5071992;28;20036;-65
2021/08/29 00:19:47;;;;;;;3.58;2.20;;;19.00;84.90;;;;;;5071622;28;20028;-66
2021/08/29 00:22:13;;;;;;;3.67;1.90;;;19.00;84.90;;;;;;5070648;28;20059;-65
2021/08/29 00:24:38;;;;;;;5.82;2.30;;;19.00;84.90;;;;;;5071990;28;20052;-66
2021/08/29 00:27:04;;;;;;;4.10;2.13;;;19.00;84.90;;;;;;5071988;28;20017;-66
2021/08/29 00:29:30;;;;;;;5.90;2.20;;;19.00;84.90;;;;;;5071575;28;20025;-65
2021/08/29 00:31:55;;;;;;;4.38;2.33;;;19.00;84.90;;;;;;5071942;28;20469;-66
2021/08/29 00:34:21;;;;;;;3.40;2.00;;;19.00;84.90;;;;;;5071845;28;20112;-66
2021/08/29 00:36:46;;;;;;;4.55;2.33;;;19.00;85.00;;;;;;5071735;28;20127;-65
2021/08/29 00:39:12;;;;;;;4.50;2.20;;;19.00;84.90;;;;;;5070104;28;20020;-67
2021/08/29 00:41:40;;;;;;;4.30;2.00;;;19.00;84.90;;;;;;5071794;28;20016;-67
2021/08/29 00:44:06;;;;;;;3.63;1.90;;;19.00;85.00;;;;;;5071095;28;20025;-64
2021/08/29 00:46:33;;;;;;;4.53;2.03;;;19.00;85.00;;;;;;5095447;28;20028;-66
2021/08/29 00:48:58;;;;;;;4.88;1.95;;;19.20;85.10;;;;;;5090555;28;20029;-65
2021/08/29 00:51:24;;;;;;;3.78;2.00;;;19.00;85.00;;;;;;5091990;28;20027;-66
2021/08/29 00:53:53;;;;;;;4.72;2.35;;;19.00;85.00;;;;;;5090461;28;20035;-65
2021/08/29 00:56:20;;;;;;;3.85;2.15;;;19.00;85.00;;;;;;5091827;28;20485;-66
2021/08/29 00:58:47;;;;;;;4.45;2.00;;;19.00;85.00;;;;;;5090999;28;20055;-66
2021/08/29 01:01:22;;;;;;;3.60;2.15;;;19.00;85.00;;;;;;5087206;28;20503;-66
2021/08/29 01:03:52;;;;;;;5.75;2.45;;;19.00;85.00;;;;;;5090812;28;20016;-65
2021/08/29 01:06:18;;;;;;;3.28;1.92;;;19.00;85.00;;;;;;5097429;28;20055;-65
2021/08/29 01:08:50;;;;;;;3.30;1.88;;;19.00;85.00;;;;;;5092457;28;20024;-66
2021/08/29 01:11:18;;;;;;;4.53;1.90;;;19.00;85.00;;;;;;5088099;28;20056;-66
2021/08/29 01:13:47;;;;;;;4.00;1.80;;;19.00;85.00;;;;;;5089017;28;20035;-65
2021/08/29 01:16:16;;;;;;;4.13;1.92;;;18.90;85.00;;;;;;5111953;28;20069;-65
2021/08/29 01:18:43;;;;;;;4.10;1.95;;;19.00;85.00;;;;;;5100470;28;20035;-66
2021/08/29 01:21:12;;;;;;;4.40;1.90;;;18.90;84.90;;;;;;5095550;28;20024;-66
2021/08/29 01:23:42;;;;;;;3.80;2.00;;;19.00;85.00;;;;;;5093580;28;20493;-65
2021/08/29 01:26:32;;;;;;;3.95;1.98;;;19.00;85.10;;;;;;5091544;28;20032;-65
2021/08/29 01:29:03;;;;;;;2.75;1.70;;;19.00;85.10;;;;;;5083991;28;20120;-65
2021/08/29 01:31:31;;;;;;;4.40;1.90;;;19.00;85.10;;;;;;5089440;28;20032;-66
2021/08/29 01:33:59;;;;;;;3.80;1.90;;;18.90;85.00;;;;;;5082167;28;20250;-68
2021/08/29 01:36:25;;;;;;;3.03;1.50;;;19.00;85.10;;;;;;5089082;28;20032;-67
2021/08/29 01:38:51;;;;;;;4.28;2.00;;;18.90;85.00;;;;;;5074460;28;20399;-66
2021/08/29 01:41:18;;;;;;;3.95;1.73;;;18.90;85.00;;;;;;5086820;28;20035;-69
2021/08/29 01:43:45;;;;;;;5.30;2.00;;;18.90;85.00;;;;;;5073376;28;20020;-69
2021/08/29 01:46:11;;;;;;;4.55;1.70;;;18.90;85.10;;;;;;5090114;28;20505;-67
2021/08/29 01:48:41;;;;;;;5.10;1.70;;;18.90;85.10;;;;;;5084046;28;20036;-68
2021/08/29 01:51:09;;;;;;;3.15;1.85;;;18.90;85.10;;;;;;5100424;28;20035;-66
2021/08/29 01:53:36;;;;;;;4.43;1.80;;;18.90;85.10;;;;;;5111721;28;20053;-66
2021/08/29 01:56:02;;;;;;;4.93;2.33;;;18.90;85.10;;;;;;5079151;28;20111;-66
2021/08/29 01:58:27;;;;;;;2.92;1.70;;;18.90;85.10;;;;;;5085475;28;20123;-67
2021/08/29 02:00:56;;;;;;;3.85;1.98;;;18.90;85.20;;;;;;5082066;28;20045;-65
2021/08/29 02:03:23;;;;;;;4.85;2.25;;;18.90;85.20;;;;;;5089466;28;20032;-67
2021/08/29 02:06:07;;;;;;;3.38;1.85;;;18.90;85.20;;;;;;5091630;28;20024;-65
2021/08/29 02:08:36;;;;;;;4.07;1.73;;;18.90;85.20;;;;;;5086758;28;20056;-66
2021/08/29 02:11:04;;;;;;;4.22;1.90;;;18.90;85.20;;;;;;5079785;28;20481;-68
2021/08/29 02:13:33;;;;;;;3.40;1.77;;;18.90;85.20;;;;;;5094515;28;20047;-66
2021/08/29 02:16:07;;;;;;;4.57;1.85;;;18.90;85.20;;;;;;5093663;28;20036;-66
2021/08/29 02:18:34;;;;;;;4.35;1.73;;;18.90;85.20;;;;;;5085422;28;20039;-68
2021/08/29 02:21:01;;;;;;;6.43;2.05;;;18.90;85.30;;;;;;5080211;28;20040;-67
2021/08/29 02:23:29;;;;;;;3.55;1.67;;;18.90;85.30;;;;;;5075285;28;20029;-65
2021/08/29 02:25:55;;;;;;;3.20;1.95;;;18.90;85.20;;;;;;5079078;28;20017;-66
2021/08/29 02:28:21;;;;;;;4.57;1.83;;;18.90;85.30;;;;;;5086180;28;20028;-65
2021/08/29 02:30:47;;;;;;;4.32;1.73;;;18.90;85.30;;;;;;5090849;28;20021;-66
2021/08/29 02:33:12;;;;;;;3.72;1.85;;;18.90;85.30;;;;;;5079072;28;20120;-66
2021/08/29 02:35:41;;;;;;;3.33;1.60;;;18.90;85.30;;;;;;5075397;28;20477;-66
2021/08/29 02:38:07;;;;;;;3.83;1.70;;;18.90;85.30;;;;;;5092810;28;20163;-67
2021/08/29 02:40:38;;;;;;;3.35;1.83;;;18.90;85.30;;;;;;5092533;28;20024;-65
2021/08/29 02:43:10;;;;;;;4.38;2.05;;;18.90;85.20;;;;;;5083298;28;20425;-65
2021/08/29 02:45:37;;;;;;;3.55;1.92;;;18.90;85.20;;;;;;5081225;28;20081;-69
2021/08/29 02:48:04;;;;;;;3.45;1.90;;;18.90;85.30;;;;;;5092216;28;20508;-65
2021/08/29 02:50:31;;;;;;;4.05;1.90;;;18.90;85.30;;;;;;5084137;28;20059;-66
2021/08/29 02:52:56;;;;;;;4.05;1.83;;;18.90;85.30;;;;;;5088751;28;20115;-68
2021/08/29 02:55:24;;;;;;;4.40;1.92;;;18.80;85.30;;;;;;5092664;28;20047;-66
2021/08/29 02:57:57;;;;;;;4.75;1.77;;;18.90;85.40;;;;;;5090302;28;20497;-65
2021/08/29 03:00:23;;;;;;;3.58;1.83;;;18.80;85.40;;;;;;5081372;28;20509;-67
2021/08/29 03:02:49;;;;;;;5.60;2.10;;;18.80;85.40;;;;;;5077710;28;20048;-68
2021/08/29 03:05:14;;;;;;;4.50;1.77;;;18.90;85.50;;;;;;5080868;28;20041;-65
2021/08/29 03:07:40;;;;;;;3.28;1.70;;;18.80;85.50;;;;;;5073304;28;20020;-65
2021/08/29 03:10:07;;;;;;;4.15;2.00;;;18.90;85.60;;;;;;5074908;28;20410;-65
2021/08/29 03:12:32;;;;;;;5.22;1.70;;;18.80;85.50;;;;;;5076166;28;20085;-66
2021/08/29 03:14:58;;;;;;;5.22;1.58;;;18.80;85.50;;;;;;5073128;28;20478;-65
2021/08/29 03:17:24;;;;;;;3.28;1.60;;;18.80;85.50;;;;;;5084700;28;20158;-66
2021/08/29 03:19:51;;;;;;;3.42;1.55;;;18.80;85.50;;;;;;5084854;28;20111;-67
2021/08/29 03:22:17;;;;;;;4.10;1.95;;;18.90;85.60;;;;;;5078188;28;20109;-65
2021/08/29 03:24:43;;;;;;;5.07;1.90;;;18.90;85.60;;;;;;5075314;28;20086;-66
2021/08/29 03:27:09;;;;;;;4.82;1.63;;;18.80;85.60;;;;;;5083171;28;20035;-66
2021/08/29 03:29:35;;;;;;;3.10;1.58;;;18.80;85.60;;;;;;5090480;28;20032;-67
2021/08/29 03:32:00;;;;;;;3.22;1.70;;;18.80;85.60;;;;;;5090023;28;20034;-67
2021/08/29 03:34:28;;;;;;;4.20;2.03;;;18.80;85.60;;;;;;5078100;28;20032;-65
2021/08/29 03:36:53;;;;;;;5.28;1.83;;;18.80;85.80;;;;;;5092483;28;20055;-66
2021/08/29 03:39:19;;;;;;;3.58;1.80;;;18.80;85.70;;;;;;5083693;28;20051;-66
2021/08/29 03:41:45;;;;;;;4.50;1.50;;;18.80;85.70;;;;;;5087602;28;20039;-67
2021/08/29 03:44:15;;;;;;;3.85;1.95;;;18.80;85.70;;;;;;5070704;28;20036;-68
2021/08/29 03:46:40;;;;;;;3.58;1.70;;;18.80;85.70;;;;;;5084780;28;20021;-66
2021/08/29 03:49:07;;;;;;;3.53;1.80;;;18.80;85.70;;;;;;5086535;28;20027;-66
2021/08/29 03:51:34;;;;;;;2.25;1.52;;;18.80;85.60;;;;;;5091312;28;20032;-64
2021/08/29 03:54:01;;;;;;;4.43;1.85;;;18.80;85.60;;;;;;5073682;28;20021;-67
2021/08/29 03:56:28;;;;;;;3.38;1.67;;;18.80;85.60;;;;;;5075836;28;20039;-66
2021/08/29 03:58:54;;;;;;;3.05;1.40;;;18.80;85.60;;;;;;5091886;28;20032;-67
2021/08/29 04:01:20;;;;;;;4.60;1.80;;;18.80;85.70;;;;;;5086886;28;20135;-67
2021/08/29 04:03:45;;;;;;;4.43;1.92;;;18.80;85.60;;;;;;5076203;28;20032;-66
2021/08/29 04:06:12;;;;;;;2.90;1.60;;;18.80;85.50;;;;;;5077959;28;20051;-65
2021/08/29 04:08:44;;;;;;;4.22;1.88;;;18.80;85.60;;;;;;5077809;28;20123;-70
2021/08/29 04:11:09;;;;;;;4.38;2.10;;;18.80;86.10;;;;;;5072303;28;20024;-66
2021/08/29 04:13:37;;;;;;;3.90;1.80;;;18.80;85.60;;;;;;5074474;28;20077;-65
2021/08/29 04:16:04;;;;;;;4.85;1.58;;;18.80;85.60;;;;;;5080569;28;20024;-66
2021/08/29 04:18:37;;;;;;;3.75;1.63;;;18.80;85.60;;;;;;5074627;28;20024;-65
2021/08/29 04:21:03;;;;;;;4.30;1.90;;;18.80;85.60;;;;;;5086442;28;20058;-65
2021/08/29 04:23:29;;;;;;;3.65;1.55;;;18.80;86.10;;;;;;5086531;28;20051;-66
2021/08/29 04:25:54;;;;;;;2.50;1.45;;;18.80;85.70;;;;;;5082471;28;20055;-66
2021/08/29 04:28:20;;;;;;;2.83;1.50;;;18.80;85.80;;;;;;5072807;28;20024;-66
2021/08/29 04:30:48;;;;;;;4.63;1.63;;;18.80;85.90;;;;;;5092037;28;20149;-66
2021/08/29 04:33:13;;;;;;;2.53;1.50;;;18.80;86.00;;;;;;5078555;28;20490;-66
2021/08/29 04:35:39;;;;;;;3.38;1.70;;;18.80;86.10;;;;;;5084999;28;20028;-66
2021/08/29 04:38:06;;;;;;;4.45;1.58;;;18.80;86.20;;;;;;5089222;28;20111;-66
2021/08/29 04:40:32;;;;;;;3.97;1.50;;;18.80;86.30;;;;;;5086714;28;20577;-65
2021/08/29 04:42:58;;;;;;;3.55;1.63;;;18.80;86.40;;;;;;5090917;28;20026;-66
2021/08/29 04:45:23;;;;;;;3.60;1.80;;;18.80;86.40;;;;;;5085021;28;20019;-66
2021/08/29 04:47:49;;;;;;;3.05;1.45;;;18.80;86.50;;;;;;5091616;28;20381;-65
2021/08/29 04:50:14;;;;;;;2.65;1.42;;;18.80;86.50;;;;;;5083800;28;20028;-66
2021/08/29 04:52:40;;;;;;;3.75;1.63;;;18.80;86.50;;;;;;5091843;28;20047;-66
2021/08/29 04:55:07;;;;;;;2.85;1.63;;;18.80;86.50;;;;;;5078526;28;20059;-65
2021/08/29 04:57:33;;;;;;;4.28;1.45;;;18.80;86.60;;;;;;5081264;28;20136;-68
2021/08/29 04:59:58;;;;;;;3.33;1.45;;;18.80;86.70;;;;;;5089081;28;20130;-66
2021/08/29 05:02:24;;;;;;;2.97;1.48;;;18.80;86.70;;;;;;5075289;28;20025;-65
2021/08/29 05:04:49;;;;;;;3.50;1.58;;;18.80;86.80;;;;;;5075652;28;20111;-66
2021/08/29 05:07:15;;;;;;;5.45;1.55;;;18.80;86.80;;;;;;5078310;28;20074;-67
2021/08/29 05:09:40;;;;;;;3.92;1.75;;;18.80;86.90;;;;;;5075545;28;20064;-66
2021/08/29 05:12:06;;;;;;;4.28;1.67;;;18.80;86.90;;;;;;5080417;28;20039;-67
2021/08/29 05:14:32;;;;;;;3.15;1.60;;;18.80;86.90;;;;;;5083699;28;20032;-67
2021/08/29 05:16:57;;;;;;;3.40;1.70;;;18.80;86.90;;;;;;5075252;28;20118;-67
2021/08/29 05:19:23;;;;;;;5.68;1.60;;;18.80;87.00;;;;;;5082749;28;20490;-66
2021/08/29 05:21:48;;;;;;;4.57;1.90;;;18.80;87.00;;;;;;5072330;28;20512;-65
2021/08/29 05:24:14;;;;;;;3.50;1.40;;;18.80;87.00;;;;;;5090168;28;20111;-67
2021/08/29 05:26:39;;;;;;;3.70;1.80;;;18.80;87.00;;;;;;5072344;28;20032;-65
2021/08/29 05:29:05;;;;;;;3.33;1.65;;;18.80;87.10;;;;;;5075428;28;20093;-66
2021/08/29 05:31:30;;;;;;;3.22;1.52;;;18.80;87.10;;;;;;5075398;28;20466;-67
2021/08/29 05:33:56;;;;;;;3.25;1.40;;;18.80;87.10;;;;;;5070143;28;20032;-66
2021/08/29 05:36:21;;;;;;;3.08;1.60;;;18.80;87.10;;;;;;5071480;28;20489;-65
2021/08/29 05:38:47;;;;;;;3.88;1.73;;;18.80;87.10;;;;;;5071868;28;20394;-66
2021/08/29 05:41:12;;;;;;;4.22;1.60;;;18.80;87.20;;;;;;5073802;28;20047;-65
2021/08/29 05:43:38;;;;;;;4.05;1.60;;;18.80;87.20;;;;;;5075232;28;20056;-66
2021/08/29 05:46:04;;;;;;;2.65;1.30;;;18.80;87.10;;;;;;5079223;28;20382;-66
2021/08/29 05:48:30;;;;;;;3.55;1.50;;;18.80;87.20;;;;;;5069394;28;20482;-67
2021/08/29 05:50:56;;;;;;;4.47;1.80;;;18.80;87.20;;;;;;5081147;28;20394;-66
2021/08/29 05:53:21;;;;;;;3.70;1.45;;;18.80;87.20;;;;;;5084447;28;20050;-68
2021/08/29 05:55:47;;;;;;;2.92;1.40;;;18.80;87.30;;;;;;5076595;28;20032;-67
2021/08/29 05:58:12;;;;;;;3.28;1.15;;;18.80;87.20;;;;;;5075094;28;20046;-67
2021/08/29 06:00:38;;;;;;;2.10;1.30;;;18.80;87.30;;;;;;5078492;28;20389;-67
2021/08/29 06:03:03;;;;;;;2.85;1.27;;;18.80;87.30;;;;;;5086594;28;20130;-66
2021/08/29 06:05:30;;;;;;;3.42;1.30;;;18.80;87.30;;;;;;5072057;28;20495;-66
2021/08/29 06:07:56;;;;;;;3.55;1.60;;;18.80;87.30;;;;;;5086690;28;20043;-66
2021/08/29 06:10:21;;;;;;;3.25;1.67;;;18.80;87.30;;;;;;5074516;28;20024;-66
2021/08/29 06:12:47;;;;;;;3.10;1.45;;;18.80;87.30;;;;;;5079781;28;20060;-69
2021/08/29 06:15:13;;;;;;;2.45;1.38;;;18.80;87.20;;;;;;5109823;28;20032;-67
2021/08/29 06:17:38;;;;;;;3.25;1.45;;;18.80;87.30;;;;;;5079876;28;20032;-66
2021/08/29 06:20:05;;;;;;;3.97;1.55;;;18.80;87.30;;;;;;5088050;28;20018;-66
2021/08/29 06:22:30;;;;;;;4.45;1.60;;;18.80;87.30;;;;;;5085459;28;20035;-66
2021/08/29 06:24:56;;;;;;;2.78;1.25;;;18.80;87.30;;;;;;5080752;28;20024;-70
2021/08/29 06:27:21;;;;;;;5.22;1.70;;;18.80;87.30;;;;;;5087372;28;20024;-67
2021/08/29 06:29:47;;;;;;;2.70;1.20;;;18.80;87.30;;;;;;5078048;28;20072;-66
2021/08/29 06:32:12;;;;;;;4.07;1.48;;;18.80;87.30;;;;;;5083434;28;20067;-65
2021/08/29 06:34:38;;;;;;;4.63;1.80;;;18.80;87.20;;;;;;5103441;28;20024;-67
2021/08/29 06:37:03;;;;;;;3.17;1.33;;;18.80;87.20;;;;;;5091496;28;20020;-65
2021/08/29 06:39:29;;;;;;;2.45;1.33;;;18.80;87.30;;;;;;5112888;28;20024;-65
2021/08/29 06:41:55;;;;;;;2.13;1.20;;;18.80;87.20;;;;;;5098872;28;20020;-66
2021/08/29 06:44:20;;;;;;;4.55;1.35;;;18.80;87.20;;;;;;5093465;28;20077;-66
2021/08/29 06:46:46;;;;;;;3.05;1.38;;;18.80;87.20;;;;;;5092493;28;20020;-65
2021/08/29 06:49:11;;;;;;;4.72;1.30;;;18.80;87.10;;;;;;5088672;28;20032;-69
2021/08/29 06:51:37;;;;;;;3.85;1.65;;;18.90;87.30;;;;;;5083149;28;20032;-67
2021/08/29 06:54:03;;;;;;;4.75;1.60;;;18.90;87.50;;;;;;5087120;28;20044;-67
2021/08/29 06:56:28;;;;;;;5.00;1.70;;;18.90;87.50;;;;;;5093091;28;20035;-70
2021/08/29 06:58:54;;;;;;;3.65;1.40;;;18.90;87.60;;;;;;5102704;28;20089;-66
2021/08/29 07:01:19;;;;;;;6.70;1.83;;;18.90;87.60;;;;;;5087324;28;20027;-66
2021/08/29 07:03:45;;;;;;;5.05;1.77;;;18.90;87.60;;;;;;5087602;28;20030;-67
2021/08/29 07:06:10;;;;;;;6.35;2.30;;;18.90;87.60;;;;;;5086108;28;20081;-68
2021/08/29 07:08:36;;;;;;;10.63;2.33;;;18.90;87.60;;;;;;5093041;28;20038;-70
2021/08/29 07:11:02;;;;;;;5.05;1.95;;;18.90;87.60;;;;;;5107672;28;20028;-67
2021/08/29 07:13:27;;;;;;;6.70;1.98;;;18.80;87.60;;;;;;5107810;28;20035;-68
2021/08/29 07:15:53;;;;;;;5.07;1.75;;;18.90;87.60;;;;;;5107792;28;20053;-68
2021/08/29 07:18:18;;;;;;;6.97;2.00;;;18.90;87.70;;;;;;5105415;28;20081;-69
2021/08/29 07:20:44;;;;;;;6.82;2.10;;;18.90;87.70;;;;;;5106504;28;20024;-70
2021/08/29 07:23:09;;;;;;;7.68;2.15;;;18.90;87.80;;;;;;5106720;28;20069;-67
2021/08/29 07:25:35;;;;;;;8.35;2.25;;;18.90;88.00;;;;;;5086233;28;20032;-67
2021/08/29 07:28:04;;;;;;;6.82;2.50;;;18.90;88.00;;;;;;5085044;28;20052;-68
2021/08/29 07:30:30;;;;;;;7.00;2.25;;;18.90;88.10;;;;;;5085510;28;20124;-66
2021/08/29 07:32:56;;;;;;;7.63;2.30;;;18.90;88.10;;;;;;5084721;28;20444;-67
2021/08/29 07:35:21;;;;;;;8.50;2.17;;;18.90;88.20;;;;;;5098461;28;20023;-68
2021/08/29 07:37:47;;;;;;;8.75;2.67;;;18.90;88.10;;;;;;5085460;28;20059;-67
2021/08/29 07:40:13;;;;;;;6.50;2.30;;;18.90;88.20;;;;;;5086193;28;20020;-67
2021/08/29 07:42:39;;;;;;;7.35;2.45;;;18.90;88.20;;;;;;5088397;28;20016;-69
2021/08/29 07:45:05;;;;;;;9.50;2.63;;;18.90;88.20;;;;;;5075337;28;20020;-63
2021/08/29 07:47:32;;;;;;;8.20;2.60;;;18.90;88.10;;;;;;5080135;28;20074;-69
2021/08/29 07:49:58;;;;;;;8.65;2.10;;;18.90;88.10;;;;;;5105584;28;20072;-68
2021/08/29 07:52:24;;;;;;;10.93;2.70;;;19.00;88.40;;;;;;5089585;28;20096;-66
2021/08/29 07:54:49;;;;;;;6.57;1.98;;;19.00;88.60;;;;;;5085834;28;20017;-65
2021/08/29 07:57:15;;;;;;;9.07;2.20;;;19.00;88.50;;;;;;5086251;28;20065;-67
2021/08/29 07:59:40;;;;;;;13.07;2.40;;;19.00;88.90;;;;;;5084420;28;20028;-64
2021/08/29 08:02:06;;;;;;;6.57;1.92;;;19.10;88.20;;;;;;5102938;28;20020;-65
2021/08/29 08:04:31;;;;;;;8.15;2.65;;;19.00;88.30;;;;;;5097815;28;20024;-70
2021/08/29 08:06:57;;;;;;;5.85;1.85;;;19.00;88.30;;;;;;5087278;28;20042;-66
2021/08/29 08:09:22;;;;;;;7.65;2.10;;;19.00;88.20;;;;;;5089211;28;20047;-69
2021/08/29 08:11:48;;;;;;;8.57;2.00;;;19.10;88.10;;;;;;5105113;28;20037;-68
2021/08/29 08:14:13;;;;;;;6.30;1.88;;;19.10;88.00;;;;;;5092258;28;20123;-67
2021/08/29 08:16:39;;;;;;;5.30;2.00;;;19.10;87.90;;;;;;5086251;28;20059;-66
2021/08/29 08:19:04;;;;;;;6.22;1.67;;;19.00;87.60;;;;;;5085839;28;20512;-68
2021/08/29 08:21:30;;;;;;;6.10;2.10;;;19.00;87.50;;;;;;5086047;28;20028;-64
2021/08/29 08:23:56;;;;;;;11.38;2.30;;;19.00;87.70;;;;;;5085261;28;20115;-68
2021/08/29 08:26:22;;;;;;;8.73;2.10;;;19.10;87.80;;;;;;5085789;28;20473;-65
2021/08/29 08:28:47;;;;;;;7.60;2.10;;;19.10;88.00;;;;;;5068236;28;20036;-68
2021/08/29 08:31:13;;;;;;;8.90;2.75;;;19.00;88.00;;;;;;5064051;28;20488;-65
2021/08/29 08:33:38;;;;;;;12.48;3.00;;;19.10;88.20;;;;;;5064111;28;20058;-64
2021/08/29 08:36:04;;;;;;;12.52;2.50;;;19.10;88.20;;;;;;5063861;28;20562;-70
2021/08/29 08:38:30;;;;;;;8.27;2.92;;;19.10;88.00;;;;;;5071305;28;20124;-67
2021/08/29 08:40:55;;;;;;;11.55;2.53;;;19.10;88.30;;;;;;5080889;28;20055;-64
2021/08/29 08:43:21;;;;;;;7.25;2.20;;;19.10;88.20;;;;;;5071408;28;20115;-66
2021/08/29 08:45:47;;;;;;;13.38;2.28;;;19.10;87.90;;;;;;5068463;28;20518;-63
2021/08/29 08:48:14;;;;;;;11.13;2.28;;;19.10;87.80;;;;;;5072409;28;20039;-68
2021/08/29 08:50:45;;;;;;;7.38;2.40;;;19.20;88.20;;;;;;5076652;28;20024;-65
2021/08/29 08:53:11;;;;;;;10.27;2.35;;;19.20;88.30;;;;;;5086781;28;20039;-65
2021/08/29 08:55:38;;;;;;;9.27;2.30;;;19.20;87.90;;;;;;5091745;28;20035;-66
2021/08/29 08:58:05;;;;;;;10.45;2.63;;;19.20;88.00;;;;;;5093127;28;20887;-64
2021/08/29 09:00:31;;;;;;;9.45;2.28;;;19.20;88.00;;;;;;5105083;28;20546;-66
2021/08/29 09:02:57;;;;;;;114.65;33.92;;;19.20;88.00;;;;;;5104448;28;20023;-69
2021/08/29 09:05:23;;;;;;;51.10;15.43;;;19.20;88.10;;;;;;5105861;28;20050;-66
2021/08/29 09:07:50;;;;;;;25.08;6.78;;;19.20;87.60;;;;;;5105684;28;20031;-66
2021/08/29 09:10:16;;;;;;;20.30;5.72;;;19.20;87.70;;;;;;5105510;28;20043;-69
2021/08/29 09:12:56;;;;;;;15.32;4.35;;;19.20;88.00;;;;;;5104660;28;20496;-73
2021/08/29 09:15:21;;;;;;;12.57;3.90;;;19.20;90.10;;;;;;5106310;28;20027;-73
2021/08/29 09:17:47;;;;;;;15.40;3.40;;;19.30;90.00;;;;;;5107110;28;20032;-71
2021/08/29 09:20:37;;;;;;;15.18;4.07;;;19.40;89.40;;;;;;5104838;28;20885;-73
2021/08/29 09:23:11;;;;;;;11.20;3.15;;;19.40;89.00;;;;;;5105594;28;20557;-78
2021/08/29 09:25:43;;;;;;;9.88;2.50;;;19.50;88.60;;;;;;5107685;28;20032;-76
2021/08/29 09:28:12;;;;;;;11.95;2.75;;;19.50;88.30;;;;;;5106635;28;20084;-74
2021/08/29 09:30:42;;;;;;;12.73;2.85;;;19.50;88.10;;;;;;5104872;28;20564;-72
2021/08/29 09:33:08;;;;;;;15.75;2.80;;;19.50;87.80;;;;;;5105465;28;20461;-71
2021/08/29 09:35:35;;;;;;;9.27;2.25;;;19.60;87.70;;;;;;5106517;28;20088;-69
2021/08/29 09:38:03;;;;;;;11.82;2.45;;;19.60;87.40;;;;;;5104302;28;20031;-68
2021/08/29 09:40:35;;;;;;;10.98;2.50;;;19.50;87.30;;;;;;5105215;28;20019;-69
2021/08/29 09:43:02;;;;;;;13.70;2.20;;;19.50;87.00;;;;;;5109296;28;20442;-68
2021/08/29 09:45:36;;;;;;;8.52;2.15;;;19.50;87.20;;;;;;5107645;28;20535;-67
2021/08/29 09:48:10;;;;;;;9.80;2.65;;;19.60;87.10;;;;;;5107617;28;20061;-70
2021/08/29 09:50:39;;;;;;;11.85;2.25;;;19.50;86.90;;;;;;5109123;28;20534;-67
2021/08/29 09:53:06;;;;;;;8.23;2.00;;;19.50;86.80;;;;;;5108398;28;20065;-68
2021/08/29 09:55:37;;;;;;;9.95;2.08;;;19.50;86.80;;;;;;5107857;28;20050;-69
2021/08/29 09:58:27;;;;;;;8.53;2.60;;;19.50;86.90;;;;;;5107877;28;20032;-69
2021/08/29 10:01:07;;;;;;;12.30;2.78;;;19.40;86.70;;;;;;5109473;28;20034;-70
2021/08/29 10:03:33;;;;;;;12.73;2.63;;;19.40;86.40;;;;;;5109474;28;20059;-68
2021/08/29 10:06:22;;;;;;;16.88;3.10;;;19.50;86.30;;;;;;5109054;28;20586;-68
2021/08/29 10:08:55;;;;;;;23.20;4.30;;;19.50;86.20;;;;;;5108376;28;20400;-69
2021/08/29 10:11:22;;;;;;;27.90;4.03;;;19.50;86.00;;;;;;5108994;28;20058;-68
2021/08/29 10:13:48;;;;;;;20.98;4.13;;;19.40;85.90;;;;;;5108611;28;20493;-68
2021/08/29 10:16:14;;;;;;;19.75;3.97;;;19.50;86.00;;;;;;5107730;28;20042;-68
2021/08/29 10:18:43;;;;;;;18.92;4.55;;;19.50;85.90;;;;;;5106978;28;20027;-68
2021/08/29 10:21:14;;;;;;;24.20;3.85;;;19.50;85.90;;;;;;5109313;28;20536;-70
2021/08/29 10:23:42;;;;;;;25.50;4.45;;;19.50;85.60;;;;;;5107198;28;20485;-68
2021/08/29 10:26:09;;;;;;;16.63;3.20;;;19.50;85.60;;;;;;5108552;28;20058;-70
2021/08/29 10:29:07;;;;;;;21.33;3.53;;;19.50;85.40;;;;;;5108222;28;20059;-69
2021/08/29 10:31:45;;;;;;;17.30;3.50;;;19.50;85.20;;;;;;5108613;28;20078;-68
2021/08/29 10:34:12;;;;;;;19.83;3.92;;;19.50;85.00;;;;;;5108583;28;20411;-73
2021/08/29 10:36:38;;;;;;;17.95;3.63;;;19.50;85.00;;;;;;5106947;28;20075;-69
2021/08/29 10:39:04;;;;;;;15.65;3.70;;;19.50;84.80;;;;;;5106558;28;21183;-70
2021/08/29 10:41:31;;;;;;;16.52;3.17;;;19.60;84.60;;;;;;5107288;28;20119;-68
2021/08/29 10:43:56;;;;;;;14.57;3.40;;;19.60;84.60;;;;;;5106958;28;20024;-71
2021/08/29 10:46:23;;;;;;;15.48;3.60;;;19.60;84.50;;;;;;5108374;28;20110;-68
2021/08/29 10:48:50;;;;;;;16.42;3.53;;;19.60;84.50;;;;;;5107891;28;20315;-69
2021/08/29 10:51:19;;;;;;;15.07;3.38;;;19.50;84.40;;;;;;5106382;28;20049;-69
2021/08/29 10:53:53;;;;;;;17.38;3.67;;;19.60;84.50;;;;;;5107789;28;20027;-67
2021/08/29 10:56:19;;;;;;;16.65;3.17;;;19.60;84.30;;;;;;5108022;28;20047;-71
2021/08/29 10:59:04;;;;;;;15.50;2.90;;;19.60;84.20;;;;;;5107570;28;20446;-67
2021/08/29 11:01:36;;;;;;;15.20;3.78;;;19.60;84.10;;;;;;5108107;28;20546;-68
2021/08/29 11:04:17;;;;;;;10.13;2.85;;;19.60;84.00;;;;;;5106567;28;20575;-69
2021/08/29 11:10:07;;;;;;;15.43;3.83;;;19.70;83.80;;;;;;5087146;28;20548;-72
2021/08/29 11:12:34;;;;;;;13.77;3.30;;;19.80;83.40;;;;;;5085652;28;20024;-67
2021/08/29 11:15:02;;;;;;;17.55;3.75;;;19.80;83.30;;;;;;5087213;28;20019;-69
2021/08/29 11:17:33;;;;;;;14.63;3.17;;;19.90;83.20;;;;;;5086048;28;20024;-70
2021/08/29 11:20:02;;;;;;;13.20;2.97;;;19.90;82.80;;;;;;5085190;28;20060;-68
2021/08/29 11:22:34;;;;;;;13.50;3.47;;;19.90;82.70;;;;;;5085727;28;20036;-67
2021/08/29 11:25:20;;;;;;;15.10;3.63;;;19.90;82.50;;;;;;5087275;28;20032;-73
2021/08/29 11:27:50;;;;;;;13.75;3.42;;;19.90;82.40;;;;;;5085998;28;20020;-68
2021/08/29 11:30:18;;;;;;;13.93;3.20;;;19.90;82.50;;;;;;5087026;28;20027;-68
2021/08/29 11:32:51;;;;;;;12.15;3.17;;;19.90;82.50;;;;;;5086850;28;20112;-68
2021/08/29 11:35:29;;;;;;;11.90;3.30;;;19.90;82.50;;;;;;5086920;28;20024;-68
2021/08/29 11:38:38;;;;;;;10.57;3.35;;;19.90;82.60;;;;;;5085136;28;20693;-69
2021/08/29 11:41:15;;;;;;;14.57;3.25;;;19.90;82.40;;;;;;5076247;28;20060;-68
2021/08/29 11:43:44;;;;;;;10.77;3.25;;;19.90;82.40;;;;;;5086541;28;20036;-68
2021/08/29 11:46:17;;;;;;;10.95;3.72;;;19.90;82.10;;;;;;5086600;28;20024;-67
2021/08/29 11:48:49;;;;;;;9.07;2.95;;;19.90;82.10;;;;;;5086329;28;20582;-71
2021/08/29 11:51:23;;;;;;;11.70;3.35;;;19.90;82.10;;;;;;5080918;28;20353;-68
2021/08/29 11:53:49;;;;;;;9.55;2.83;;;19.90;82.40;;;;;;5089155;28;20030;-68
2021/08/29 11:56:18;;;;;;;8.57;2.90;;;19.90;82.50;;;;;;5102163;28;20035;-69
2021/08/29 11:58:48;;;;;;;8.07;2.67;;;19.90;82.70;;;;;;5090026;28;20501;-68
2021/08/29 12:01:15;;;;;;;11.52;2.83;;;19.90;82.60;;;;;;5096653;28;20573;-69
2021/08/29 12:03:42;;;;;;;10.50;3.03;;;19.80;82.50;;;;;;5099697;28;20504;-68
2021/08/29 12:06:16;;;;;;;9.35;3.42;;;19.90;82.60;;;;;;5097660;28;20032;-73
2021/08/29 12:08:50;;;;;;;9.88;3.47;;;19.90;82.30;;;;;;5095322;28;20027;-69
2021/08/29 12:11:16;;;;;;;8.60;2.95;;;19.90;82.20;;;;;;5087388;28;20575;-68
2021/08/29 12:13:42;;;;;;;15.68;3.97;;;19.90;82.10;;;;;;5096917;28;21046;-67
2021/08/29 12:16:08;;;;;;;18.90;4.03;;;19.90;82.00;;;;;;5089210;28;20040;-67
2021/08/29 12:18:36;;;;;;;16.83;4.10;;;19.90;81.90;;;;;;5067288;28;20374;-68
2021/08/29 12:21:04;;;;;;;18.15;4.10;;;20.00;81.80;;;;;;5086596;28;20485;-68
2021/08/29 12:23:30;;;;;;;19.17;4.65;;;20.00;81.90;;;;;;5087086;28;20024;-68
2021/08/29 12:25:58;;;;;;;14.02;3.70;;;20.00;81.70;;;;;;5087716;28;20027;-70
2021/08/29 12:28:24;;;;;;;24.20;4.57;;;20.00;81.80;;;;;;5090759;28;20027;-69
2021/08/29 12:30:55;;;;;;;18.52;3.83;;;20.00;81.60;;;;;;5092661;28;20024;-68
2021/08/29 12:33:22;;;;;;;20.73;4.55;;;20.00;81.60;;;;;;5101359;28;20515;-69
2021/08/29 12:35:48;;;;;;;19.33;4.03;;;20.00;81.50;;;;;;5092481;28;20040;-68
2021/08/29 12:38:28;;;;;;;16.85;4.72;;;20.00;81.60;;;;;;5084278;28;20061;-70
2021/08/29 12:40:56;;;;;;;17.17;4.25;;;20.00;81.70;;;;;;5084037;28;20077;-69
2021/08/29 12:43:24;;;;;;;17.38;4.47;;;20.00;81.80;;;;;;5090210;28;20027;-67
2021/08/29 12:45:50;;;;;;;21.85;4.40;;;20.00;82.00;;;;;;5084707;28;20027;-68
2021/08/29 12:48:16;;;;;;;19.50;3.88;;;20.00;82.30;;;;;;5087632;28;20040;-68